Time;durP1;ratioP1;P1;durP2;ratioP2;P2;SDS_P1;SDS_P2;PMS_P1;PMS_P2;Temp;Humidity;BMP_temperature;BMP_pressure;BME280_temperature;BME280_humidity;BME280_pressure;Samples;Min_cycle;Max_cycle;Signal;HPM_P1;HPM_P2
2023/04/06 00:34:32;;;;;;;13.77;8.23;;;;;;;4.83;70.16;100535.00;4953120;29;20050;-93
2023/04/06 00:37:11;;;;;;;13.63;8.35;;;;;;;4.98;70.72;100548.03;4918912;29;20483;-92
2023/04/06 00:39:44;;;;;;;14.75;8.77;;;;;;;5.05;70.44;100555.38;4917023;29;20217;-93
2023/04/06 00:42:25;;;;;;;13.27;8.15;;;;;;;4.95;70.31;100526.97;4932870;29;20050;-94
2023/04/06 00:45:05;;;;;;;16.10;9.20;;;;;;;4.89;70.80;100527.47;4937607;29;20051;-93
2023/04/06 00:47:56;;;;;;;11.90;7.63;;;;;;;4.96;70.83;100555.31;4936414;29;20130;-92
2023/04/06 00:50:27;;;;;;;13.20;8.15;;;;;;;4.96;70.43;100549.97;4904779;29;20065;-93
2023/04/06 00:52:56;;;;;;;14.60;8.10;;;;;;;4.63;70.34;100522.47;4915199;29;20039;-94
2023/04/06 00:55:26;;;;;;;13.40;7.38;;;;;;;4.73;70.72;100528.75;4936101;29;20130;-94
2023/04/06 00:57:54;;;;;;;14.35;8.10;;;;;;;4.98;70.14;100558.69;4931404;29;20070;-90
2023/04/06 01:00:29;;;;;;;12.70;7.60;;;;;;;4.72;70.20;100535.03;4937252;29;20052;-91
2023/04/06 01:02:57;;;;;;;13.93;7.93;;;;;;;4.66;71.15;100530.25;4951204;28;20043;-92
2023/04/06 01:05:23;;;;;;;13.02;7.70;;;;;;;4.75;70.14;100550.78;4899743;29;20385;-91
2023/04/06 01:07:53;;;;;;;10.00;6.68;;;;;;;4.67;68.87;100552.38;4914912;29;20050;-91
2023/04/06 01:10:33;;;;;;;11.63;6.70;;;;;;;4.42;68.85;100520.63;4934168;29;20047;-91
2023/04/06 01:13:05;;;;;;;9.98;5.97;;;;;;;4.37;68.61;100512.16;4927218;29;20051;-91
2023/04/06 01:15:43;;;;;;;9.65;6.30;;;;;;;4.65;68.56;100560.50;4917970;29;20047;-91
2023/04/06 01:18:11;;;;;;;11.40;6.82;;;;;;;4.50;68.12;100538.63;4936968;29;20039;-89
2023/04/06 01:20:43;;;;;;;11.10;6.57;;;;;;;4.35;67.89;100518.56;4920088;29;20044;-93
2023/04/06 01:23:15;;;;;;;11.52;6.53;;;;;;;4.25;68.17;100497.19;4919104;29;20047;-90
2023/04/06 01:25:43;;;;;;;13.27;6.22;;;;;;;4.60;67.96;100533.41;4946076;29;20110;-92
2023/04/06 01:28:08;;;;;;;11.00;6.60;;;;;;;4.34;67.83;100515.06;4929249;29;20044;-91
2023/04/06 01:30:35;;;;;;;12.43;6.72;;;;;;;4.25;67.71;100499.84;4928014;29;20099;-89
2023/04/06 01:33:02;;;;;;;;;;;;;;;4.60;67.71;100533.41;4940773;29;20066;-91
2023/04/06 01:35:39;;;;;;;9.30;6.00;;;;;;;4.34;67.07;100507.06;4925872;29;20272;-92
2023/04/06 01:38:06;;;;;;;9.90;6.45;;;;;;;4.31;67.89;100496.69;4935160;29;20051;-92
2023/04/06 01:40:35;;;;;;;12.52;6.30;;;;;;;4.43;67.38;100535.63;4938080;29;20047;-92
2023/04/06 01:43:03;;;;;;;10.60;6.47;;;;;;;4.45;67.63;100522.19;4932890;29;20035;-89
2023/04/06 01:45:31;;;;;;;10.10;6.30;;;;;;;4.35;67.28;100506.09;4968824;28;20051;-90
2023/04/06 01:48:09;;;;;;;11.32;6.60;;;;;;;4.32;67.35;100517.00;4969478;28;20125;-90
2023/04/06 01:50:41;;;;;;;11.00;6.80;;;;;;;4.31;67.66;100512.66;4965466;29;20051;-91
2023/04/06 01:53:09;;;;;;;9.20;6.10;;;;;;;4.30;67.58;100508.28;4929493;29;20055;-88
2023/04/06 01:55:43;;;;;;;11.18;6.38;;;;;;;4.30;67.52;100510.94;4948323;29;20072;-89
2023/04/06 01:58:10;;;;;;;9.88;6.32;;;;;;;4.16;67.81;100500.56;4964197;28;20023;-90
2023/04/06 02:00:36;;;;;;;9.93;6.32;;;;;;;4.14;67.86;100497.19;4948417;29;20075;-89
2023/04/06 02:03:03;;;;;;;11.15;6.60;;;;;;;4.41;67.92;100518.06;4950968;29;20035;-91
2023/04/06 02:05:32;;;;;;;10.00;6.38;;;;;;;4.45;67.49;100527.50;4956327;29;20054;-89
2023/04/06 02:08:00;;;;;;;11.80;6.57;;;;;;;4.39;67.50;100515.53;4926293;29;20447;-91
2023/04/06 02:10:33;;;;;;;11.65;7.00;;;;;;;4.39;67.56;100502.22;4930899;29;20055;-90
2023/04/06 02:13:09;;;;;;;10.73;6.68;;;;;;;4.35;67.36;100486.63;4935357;29;20047;-90
2023/04/06 02:15:36;;;;;;;;;;;;;;;4.61;67.35;100519.09;4955612;29;20131;-89
2023/04/06 02:18:04;;;;;;;10.43;6.15;;;;;;;4.48;67.48;100507.78;4952830;29;20413;-90
2023/04/06 02:20:31;;;;;;;10.82;6.72;;;;;;;4.59;67.71;100511.25;4950040;29;20085;-90
2023/04/06 02:23:01;;;;;;;9.50;6.40;;;;;;;4.43;67.39;100501.00;4941930;29;20081;-90
2023/04/06 02:25:29;;;;;;;11.32;6.95;;;;;;;4.32;67.98;100481.56;4932341;29;20102;-91
2023/04/06 02:28:16;;;;;;;10.60;6.88;;;;;;;4.37;68.07;100512.16;4929010;29;20480;-91
2023/04/06 02:30:45;;;;;;;9.75;6.28;;;;;;;4.32;68.25;100473.56;4917167;29;20055;-91
2023/04/06 02:33:14;;;;;;;11.23;6.50;;;;;;;4.55;67.53;100501.81;4940095;29;20448;-92
2023/04/06 02:35:49;;;;;;;11.40;6.78;;;;;;;4.23;68.01;100488.47;4942266;29;20051;-91
2023/04/06 02:38:18;;;;;;;9.05;6.18;;;;;;;4.32;68.73;100482.41;4959550;28;20055;-90
2023/04/06 02:41:32;;;;;;;11.30;7.05;;;;;;;4.54;68.40;100521.44;4921063;28;20077;-90
2023/04/06 02:44:09;;;;;;;11.68;6.78;;;;;;;4.20;68.20;100478.09;4961725;28;20067;-91
2023/04/06 02:46:37;;;;;;;10.43;6.50;;;;;;;4.36;68.41;100491.84;4931616;29;20054;-90
2023/04/06 02:49:03;;;;;;;11.25;6.80;;;;;;;4.18;68.30;100466.72;4915173;29;20122;-92
2023/04/06 02:51:31;;;;;;;9.52;6.22;;;;;;;4.52;68.42;100523.38;4907166;29;20341;-91
2023/04/06 02:53:57;;;;;;;10.55;6.93;;;;;;;4.40;68.31;100513.72;4919792;29;20157;-92
2023/04/06 02:56:28;;;;;;;11.60;7.18;;;;;;;4.32;68.38;100495.72;4913353;29;20133;-90
2023/04/06 02:58:56;;;;;;;11.38;7.25;;;;;;;4.11;68.62;100484.16;4936031;29;20081;-90
2023/04/06 03:01:23;;;;;;;16.45;6.53;;;;;;;4.39;68.85;100514.69;4922148;29;20036;-90
2023/04/06 03:03:49;;;;;;;14.48;7.10;;;;;;;4.30;68.64;100497.66;4923512;29;20043;-90
2023/04/06 03:06:31;;;;;;;12.00;7.15;;;;;;;4.43;68.80;100508.16;4926078;29;20055;-90
2023/04/06 03:09:00;;;;;;;14.07;7.35;;;;;;;4.20;69.27;100473.59;4933888;29;20043;-91
2023/04/06 03:11:26;;;;;;;15.45;7.95;;;;;;;4.37;69.06;100500.66;4934679;29;20081;-91
2023/04/06 03:13:53;;;;;;;14.32;7.97;;;;;;;4.44;69.05;100517.81;4922744;29;20058;-91
2023/04/06 03:16:21;;;;;;;12.50;7.68;;;;;;;4.61;68.66;100532.41;4912551;29;20047;-89
2023/04/06 03:18:48;;;;;;;13.73;8.10;;;;;;;4.35;68.69;100487.47;4934833;29;20106;-92
2023/04/06 03:21:15;;;;;;;14.48;8.02;;;;;;;4.44;68.55;100491.19;4932142;29;20472;-92
2023/04/06 03:23:41;;;;;;;14.80;8.13;;;;;;;4.49;68.60;100510.28;4918052;29;20431;-92
2023/04/06 03:26:11;;;;;;;15.65;8.80;;;;;;;4.38;69.15;100497.03;4923354;29;20106;-93
2023/04/06 03:28:38;;;;;;;12.25;8.15;;;;;;;4.15;69.44;100485.59;4947157;29;20095;-92
2023/04/06 03:31:06;;;;;;;14.02;8.52;;;;;;;4.24;69.83;100498.16;4933353;29;20117;-90
2023/04/06 03:33:32;;;;;;;14.73;7.60;;;;;;;4.10;69.75;100477.97;4918700;29;20043;-92
2023/04/06 03:35:59;;;;;;;14.32;8.27;;;;;;;4.27;69.71;100515.69;4900683;29;20058;-90
2023/04/06 03:38:27;;;;;;;17.15;8.85;;;;;;;4.15;69.77;100490.91;4913892;29;20047;-91
2023/04/06 03:41:02;;;;;;;15.75;8.52;;;;;;;4.30;69.59;100496.81;4941855;29;20463;-90
2023/04/06 03:43:34;;;;;;;14.13;9.05;;;;;;;4.34;69.48;100517.72;4937545;29;20520;-91
2023/04/06 03:46:03;;;;;;;14.38;8.57;;;;;;;4.40;69.19;100517.25;4944964;29;20062;-92
2023/04/06 03:48:32;;;;;;;16.55;10.02;;;;;;;4.59;68.52;100527.22;4938158;29;20534;-90
2023/04/06 03:50:58;;;;;;;16.08;9.90;;;;;;;4.39;68.51;100504.88;4927245;28;20071;-92
2023/04/06 03:53:28;;;;;;;18.65;10.80;;;;;;;4.27;68.41;100492.56;4941878;29;20062;-92
2023/04/06 03:56:00;;;;;;;15.60;10.60;;;;;;;4.16;68.76;100482.78;4935483;29;20043;-88
2023/04/06 03:58:27;;;;;;;18.17;11.15;;;;;;;4.34;68.64;100507.06;4946485;29;20126;-90
2023/04/06 04:00:54;;;;;;;18.02;11.43;;;;;;;4.20;68.89;100518.00;4944798;29;20177;-89
2023/04/06 04:03:27;;;;;;;19.73;11.20;;;;;;;4.10;68.83;100504.59;4964191;29;20075;-90
2023/04/06 04:05:55;;;;;;;20.95;12.18;;;;;;;4.33;68.36;100505.41;4933715;29;20043;-90
2023/04/06 04:08:21;;;;;;;19.63;11.30;;;;;;;4.12;68.65;100472.50;4928761;29;20504;-89
2023/04/06 04:10:48;;;;;;;;;;;;;;;4.52;68.47;100536.69;4938268;29;20043;-90
2023/04/06 04:13:14;;;;;;;21.10;10.60;;;;;;;4.23;68.60;100499.13;4931234;29;19967;-89
2023/04/06 04:15:42;;;;;;;18.02;10.50;;;;;;;4.32;68.72;100524.97;4953783;29;20044;-88
2023/04/06 04:18:14;;;;;;;16.10;10.20;;;;;;;4.24;68.24;100500.81;4944436;29;20050;-90
2023/04/06 04:20:41;;;;;;;19.67;10.70;;;;;;;4.28;68.38;100507.56;4947785;29;20040;-88
2023/04/06 04:23:08;;;;;;;15.95;9.68;;;;;;;4.34;68.02;100503.56;4940862;29;20043;-87
2023/04/06 04:25:36;;;;;;;16.60;9.85;;;;;;;4.35;67.96;100532.72;4932190;29;20097;-88
2023/04/06 04:28:04;;;;;;;15.40;9.50;;;;;;;4.45;67.83;100546.16;4950409;29;20121;-87
2023/04/06 04:30:30;;;;;;;15.13;8.77;;;;;;;4.32;67.73;100503.69;4930723;29;20054;-87
2023/04/06 04:32:56;;;;;;;13.63;8.57;;;;;;;4.42;67.26;100514.44;4942010;29;20040;-89
2023/04/06 04:35:23;;;;;;;14.80;9.13;;;;;;;4.46;67.60;100531.03;4947260;29;20201;-89
2023/04/06 04:37:50;;;;;;;15.30;9.60;;;;;;;4.48;67.44;100532.59;4942962;28;20468;-89
2023/04/06 04:40:23;;;;;;;15.45;10.02;;;;;;;4.39;66.86;100504.88;4899787;29;20066;-88
2023/04/06 04:42:57;;;;;;;18.60;9.75;;;;;;;4.56;66.78;100540.78;4924075;29;20423;-87
2023/04/06 04:45:25;;;;;;;18.65;10.05;;;;;;;4.28;66.98;100496.09;4950278;29;20106;-88
2023/04/06 04:47:50;;;;;;;15.13;9.63;;;;;;;4.28;66.37;100502.25;4926053;29;20069;-88
2023/04/06 04:50:16;;;;;;;;;;;;;;;4.35;66.93;100529.22;4935546;29;20057;-87
2023/04/06 04:52:43;;;;;;;17.65;9.48;;;;;;;4.20;67.06;100524.16;4950061;29;19918;-88
2023/04/06 04:55:13;;;;;;;16.17;10.63;;;;;;;4.29;66.84;100524.41;4922287;29;20059;-88
2023/04/06 04:57:39;;;;;;;18.92;9.95;;;;;;;4.14;67.16;100511.34;4951087;29;20172;-88
2023/04/06 05:00:08;;;;;;;17.67;10.15;;;;;;;4.30;66.36;100505.63;4935984;29;20118;-88
2023/04/06 05:02:43;;;;;;;18.73;9.65;;;;;;;4.41;65.69;100508.28;4950690;28;20539;-88
2023/04/06 05:05:13;;;;;;;15.43;9.65;;;;;;;4.57;65.70;100533.66;4921030;29;20118;-88
2023/04/06 05:07:40;;;;;;;16.42;9.10;;;;;;;4.52;64.84;100515.38;4924630;29;20051;-88
2023/04/06 05:10:16;;;;;;;20.98;11.23;;;;;;;4.60;65.35;100518.25;4952456;29;20043;-90
2023/04/06 05:12:45;;;;;;;16.48;10.30;;;;;;;4.60;65.17;100512.09;4936330;29;20069;-90
2023/04/06 05:15:12;;;;;;;19.25;10.10;;;;;;;4.67;64.56;100507.13;4929419;28;20075;-85
2023/04/06 05:17:40;;;;;;;19.58;10.15;;;;;;;4.51;65.22;100504.84;4928935;29;20058;-85
2023/04/06 05:20:06;;;;;;;19.20;10.10;;;;;;;4.68;65.00;100514.13;4949360;28;20138;-89
2023/04/06 05:22:32;;;;;;;20.10;11.45;;;;;;;4.88;64.78;100513.31;4940368;29;20419;-89
2023/04/06 05:24:58;;;;;;;21.58;10.95;;;;;;;5.04;64.70;100513.72;4902195;29;20286;-87
2023/04/06 05:27:31;;;;;;;20.73;11.10;;;;;;;5.22;64.23;100534.47;4918564;29;20047;-87
2023/04/06 05:30:11;;;;;;;17.55;10.38;;;;;;;5.15;63.94;100522.63;4923195;29;20031;-87
2023/04/06 05:32:44;;;;;;;23.95;11.32;;;;;;;5.08;63.71;100512.50;4954520;29;20142;-87
2023/04/06 05:38:34;;;;;;;16.85;9.95;;;;;;;5.46;62.12;100531.56;4955752;28;20404;-89
2023/04/06 05:41:03;;;;;;;18.20;9.60;;;;;;;5.06;62.45;100505.63;4941104;29;20039;-87
2023/04/06 05:43:32;;;;;;;16.75;9.68;;;;;;;5.31;61.62;100519.50;4930097;29;20047;-89
2023/04/06 05:45:58;;;;;;;17.13;10.18;;;;;;;4.99;62.58;100507.09;4915222;29;20043;-89
2023/04/06 05:48:27;;;;;;;15.43;10.10;;;;;;;5.07;62.38;100494.81;4937251;29;20027;-88
2023/04/06 05:50:56;;;;;;;16.33;9.57;;;;;;;5.10;62.42;100499.03;4961578;29;20067;-88
2023/04/06 05:53:24;;;;;;;16.10;9.13;;;;;;;5.15;62.01;100491.50;4962246;29;20062;-88
2023/04/06 05:55:53;;;;;;;19.48;10.23;;;;;;;5.02;62.07;100480.19;4949196;29;20042;-88
2023/04/06 05:58:21;;;;;;;19.85;9.20;;;;;;;5.39;61.76;100506.41;4952097;29;20182;-89
2023/04/06 06:00:47;;;;;;;16.85;9.68;;;;;;;5.34;61.75;100487.25;4931772;29;20094;-89
2023/04/06 06:03:15;;;;;;;19.05;9.40;;;;;;;5.49;60.99;100493.94;4932995;29;20093;-90
2023/04/06 06:06:07;;;;;;;15.43;8.85;;;;;;;5.63;61.19;100517.59;4925369;29;20053;-89
2023/04/06 06:08:39;;;;;;;14.70;9.57;;;;;;;5.43;62.06;100519.34;4946601;29;20039;-92
2023/04/06 06:11:06;;;;;;;15.30;9.98;;;;;;;5.50;61.20;100482.28;4908599;29;20039;-88
2023/04/06 06:13:35;;;;;;;16.80;10.27;;;;;;;5.33;61.42;100477.59;4937543;29;20055;-89
2023/04/06 06:16:24;;;;;;;19.45;10.98;;;;;;;5.53;61.85;100497.22;4914343;29;20447;-95
2023/04/06 06:18:50;;;;;;;17.65;9.95;;;;;;;5.62;61.37;100483.91;4950267;29;20500;-85
2023/04/06 06:21:17;;;;;;;18.35;10.70;;;;;;;5.78;61.29;100487.91;4969386;28;20110;-92
2023/04/06 06:23:48;;;;;;;20.27;11.20;;;;;;;6.11;60.87;100522.34;4933180;29;20071;-87
2023/04/06 06:26:13;;;;;;;19.60;11.25;;;;;;;5.96;60.71;100514.84;4931473;29;20118;-86
2023/04/06 06:28:46;;;;;;;19.15;10.27;;;;;;;5.79;60.91;100510.94;4955677;29;20050;-86
2023/04/06 06:31:12;;;;;;;16.70;9.93;;;;;;;5.94;60.44;100504.28;4938741;29;20177;-87
2023/04/06 06:33:37;;;;;;;17.58;10.63;;;;;;;5.85;60.55;100494.38;4905387;29;20231;-86
2023/04/06 06:36:07;;;;;;;17.40;10.43;;;;;;;5.94;60.28;100498.94;4921802;29;20444;-89
2023/04/06 06:38:33;;;;;;;14.93;9.50;;;;;;;6.08;59.58;100501.25;4925117;29;20051;-89
2023/04/06 06:41:05;;;;;;;16.48;9.55;;;;;;;6.06;59.64;100497.03;4942032;29;20070;-91
2023/04/06 06:43:34;;;;;;;20.25;10.27;;;;;;;6.31;60.01;100509.88;4955939;29;20035;-92
2023/04/06 06:46:00;;;;;;;21.20;10.88;;;;;;;6.46;59.13;100494.31;4947873;29;20445;-85
2023/04/06 06:48:28;;;;;;;16.48;10.20;;;;;;;6.87;58.00;100513.75;4948960;28;20081;-86
2023/04/06 06:50:57;;;;;;;23.67;10.75;;;;;;;7.01;57.72;100487.59;4932071;29;20161;-84
2023/04/06 06:53:24;;;;;;;20.88;10.18;;;;;;;7.24;56.29;100478.25;4950258;29;20043;-84
2023/04/06 06:55:50;;;;;;;18.85;10.50;;;;;;;7.50;55.61;100483.00;4933377;29;20126;-86
2023/04/06 06:58:20;;;;;;;29.92;18.25;;;;;;;7.98;54.27;100471.22;4933916;29;20156;-85
2023/04/06 07:00:46;;;;;;;16.95;9.13;;;;;;;8.51;53.45;100516.06;4948181;29;20095;-84
2023/04/06 07:03:13;;;;;;;18.83;9.43;;;;;;;8.73;51.83;100476.41;4933013;29;20098;-85
2023/04/06 07:05:48;;;;;;;16.38;9.48;;;;;;;9.13;51.20;100472.38;4949191;29;20062;-86
2023/04/06 07:08:16;;;;;;;17.17;9.88;;;;;;;9.97;48.97;100487.81;4998873;23;20059;-91
2023/04/06 07:10:41;;;;;;;17.83;9.90;;;;;;;10.55;47.41;100472.75;4916088;29;20048;-86
2023/04/06 07:13:08;;;;;;;15.93;9.80;;;;;;;11.14;45.95;100481.56;4927607;29;20058;-87
2023/04/06 07:15:34;;;;;;;;;;;;;;;11.80;45.03;100505.69;4927452;29;20059;-88
2023/04/06 07:18:01;;;;;;;17.83;9.40;;;;;;;11.92;44.36;100477.38;4928154;29;19919;-86
2023/04/06 07:20:32;;;;;;;12.90;8.35;;;;;;;12.14;43.10;100486.53;4912048;29;20163;-90
2023/04/06 07:22:58;;;;;;;17.02;9.80;;;;;;;12.74;42.42;100468.84;4904096;29;20082;-82
2023/04/06 07:25:25;;;;;;;18.63;9.98;;;;;;;13.16;41.39;100474.72;4912368;29;20067;-82
2023/04/06 07:27:51;;;;;;;15.93;10.05;;;;;;;13.49;40.42;100483.41;4927525;29;20040;-82
2023/04/06 07:30:18;;;;;;;20.77;9.52;;;;;;;13.87;40.78;100476.06;4914932;29;20081;-84
2023/04/06 07:32:45;;;;;;;16.38;9.95;;;;;;;14.69;39.28;100485.81;4929032;29;20039;-81
2023/04/06 07:35:12;;;;;;;10.27;7.80;;;;;;;14.59;38.00;100496.13;4927216;29;20055;-82
2023/04/06 07:37:38;;;;;;;13.20;8.98;;;;;;;14.38;37.86;100467.16;4931039;29;20075;-79
2023/04/06 07:40:05;;;;;;;20.48;9.15;;;;;;;14.41;38.29;100482.97;4937931;29;20063;-85
2023/04/06 07:42:32;;;;;;;23.80;9.15;;;;;;;14.90;37.78;100479.56;4939881;29;20036;-84
2023/04/06 07:45:01;;;;;;;14.30;8.93;;;;;;;15.55;36.07;100474.06;4924066;29;20478;-87
2023/04/06 07:47:26;;;;;;;14.20;8.65;;;;;;;16.01;35.80;100468.09;4929468;29;20083;-84
2023/04/06 07:49:51;;;;;;;;;;;;;;;16.50;34.45;100487.91;4913640;29;20047;-83
2023/04/06 07:52:17;;;;;;;;;;;;;;;16.51;34.40;100473.31;4922266;29;19934;-82
2023/04/06 07:54:42;;;;;;;16.57;8.80;;;;;;;16.88;33.67;100470.09;4931840;29;19915;-83
2023/04/06 07:57:11;;;;;;;;;;;;;;;16.73;33.98;100482.97;4927787;29;20048;-83
2023/04/06 07:59:36;;;;;;;10.73;7.85;;;;;;;16.68;33.81;100467.28;4930607;29;20029;-83
2023/04/06 08:02:02;;;;;;;;;;;;;;;17.25;33.42;100483.25;4908534;29;20338;-82
2023/04/06 08:04:28;;;;;;;11.50;8.18;;;;;;;16.85;33.80;100494.06;4931340;29;20026;-84
2023/04/06 08:06:54;;;;;;;12.23;8.05;;;;;;;17.30;32.97;100472.59;4925641;29;20060;-83
2023/04/06 08:09:20;;;;;;;;;;;;;;;17.75;33.09;100475.47;4915332;29;20377;-85
2023/04/06 08:11:47;;;;;;;10.82;8.27;;;;;;;18.76;31.11;100487.63;4929282;29;20005;-82
2023/04/06 08:14:17;;;;;;;11.90;8.40;;;;;;;18.51;30.80;100473.94;4913521;29;20040;-85
2023/04/06 08:16:43;;;;;;;14.57;8.05;;;;;;;19.02;29.44;100466.75;4928868;29;20043;-86
2023/04/06 08:19:11;;;;;;;10.80;7.30;;;;;;;19.13;29.52;100464.16;4914448;29;20103;-83
2023/04/06 08:21:36;;;;;;;11.07;7.50;;;;;;;19.20;29.49;100442.28;4926290;29;20079;-87
2023/04/06 08:24:03;;;;;;;10.73;7.60;;;;;;;19.95;28.46;100452.25;4930842;29;20163;-84
2023/04/06 08:26:30;;;;;;;10.65;7.40;;;;;;;19.08;29.78;100463.97;4925989;29;20048;-85
2023/04/06 08:28:56;;;;;;;12.63;6.90;;;;;;;19.14;29.41;100465.81;4924273;29;20142;-83
2023/04/06 08:31:21;;;;;;;10.13;7.60;;;;;;;19.38;29.60;100457.84;4922983;29;20066;-84
2023/04/06 08:33:47;;;;;;;14.70;8.00;;;;;;;18.69;29.85;100444.09;4931065;29;20054;-85
2023/04/06 08:36:13;;;;;;;11.32;7.15;;;;;;;18.48;29.92;100466.22;4933438;29;20132;-86
2023/04/06 08:38:40;;;;;;;10.65;7.18;;;;;;;17.81;30.58;100463.75;4931100;29;20036;-87
2023/04/06 08:41:17;;;;;;;14.48;7.50;;;;;;;17.21;32.63;100454.84;4930699;29;20035;-85
2023/04/06 08:43:44;;;;;;;12.60;7.85;;;;;;;17.52;31.56;100459.63;4910767;29;20043;-86
2023/04/06 08:46:13;;;;;;;11.65;8.00;;;;;;;17.15;31.63;100429.34;4930860;29;20421;-86
2023/04/06 08:48:40;;;;;;;10.63;7.40;;;;;;;17.30;32.10;100459.00;4935063;29;20044;-87
2023/04/06 08:51:07;;;;;;;16.13;7.40;;;;;;;16.44;33.16;100448.88;4929593;29;20048;-86
2023/04/06 08:53:34;;;;;;;9.43;6.22;;;;;;;15.75;34.15;100450.66;4932674;29;20074;-84
2023/04/06 08:56:03;;;;;;;8.13;6.28;;;;;;;15.11;35.29;100465.19;4929894;29;20144;-83
2023/04/06 08:58:34;;;;;;;;;;;;;;;14.70;36.60;100456.88;4916355;29;20052;-85
2023/04/06 09:01:00;;;;;;;12.00;6.60;;;;;;;14.13;37.65;100474.72;4909940;29;20064;-86
2023/04/06 09:03:28;;;;;;;11.52;6.95;;;;;;;14.54;37.27;100471.53;4929894;29;20105;-86
2023/04/06 09:05:54;;;;;;;19.08;8.48;;;;;;;13.76;38.94;100445.97;4927880;29;20048;-86
2023/04/06 09:08:20;;;;;;;13.45;7.53;;;;;;;13.72;38.38;100432.00;4921110;29;20157;-89
2023/04/06 09:10:47;;;;;;;9.10;6.32;;;;;;;13.48;38.78;100438.50;4899983;29;20124;-85
2023/04/06 09:13:15;;;;;;;14.35;7.90;;;;;;;13.17;39.72;100463.75;4927464;29;20055;-86
2023/04/06 09:15:41;;;;;;;12.70;7.28;;;;;;;13.05;40.35;100473.31;4919535;29;20525;-86
2023/04/06 09:18:07;;;;;;;9.10;6.38;;;;;;;12.87;40.75;100458.28;4907168;29;20102;-87
2023/04/06 09:20:33;;;;;;;9.23;6.15;;;;;;;13.13;39.85;100459.75;4914139;29;20056;-86
2023/04/06 09:23:00;;;;;;;11.45;7.00;;;;;;;13.08;40.63;100465.69;4933217;29;20043;-83
2023/04/06 09:25:26;;;;;;;8.85;6.72;;;;;;;12.97;40.89;100471.53;4932996;29;20046;-83
2023/04/06 09:28:03;;;;;;;16.23;6.80;;;;;;;12.72;40.83;100470.88;4927880;29;20051;-83
2023/04/06 09:30:29;;;;;;;17.85;6.95;;;;;;;12.17;42.11;100471.88;4932989;29;20059;-84
2023/04/06 09:32:56;;;;;;;13.23;8.60;;;;;;;11.90;43.20;100470.50;4924976;29;20042;-89
2023/04/06 09:35:22;;;;;;;12.73;8.02;;;;;;;11.66;43.82;100477.59;4949147;29;20048;-89
2023/04/06 09:37:51;;;;;;;12.45;7.53;;;;;;;11.89;43.68;100469.63;4934415;29;20104;-87
2023/04/06 09:40:22;;;;;;;12.48;7.80;;;;;;;11.79;43.45;100469.81;4917108;29;20050;-86
2023/04/06 09:42:54;;;;;;;11.18;7.47;;;;;;;11.73;43.36;100470.50;4931057;29;20264;-87
2023/04/06 09:45:20;;;;;;;11.10;7.75;;;;;;;11.54;44.09;100444.81;4934001;29;20178;-87
2023/04/06 09:47:49;;;;;;;13.30;7.55;;;;;;;11.95;43.61;100474.31;4926825;29;20079;-87
2023/04/06 09:50:16;;;;;;;11.23;7.25;;;;;;;12.07;42.41;100460.47;4933511;29;20078;-89
2023/04/06 09:52:50;;;;;;;12.80;8.30;;;;;;;12.07;43.46;100471.25;4912736;29;20048;-87
2023/04/06 09:55:34;;;;;;;9.77;7.18;;;;;;;12.17;42.83;100477.25;4932306;29;20135;-88
2023/04/06 09:58:06;;;;;;;13.70;7.57;;;;;;;11.98;43.44;100465.88;4921761;29;20095;-89
2023/04/06 10:00:35;;;;;;;11.65;7.50;;;;;;;12.12;43.34;100469.69;4934190;29;20106;-89
2023/04/06 10:03:13;;;;;;;16.38;8.27;;;;;;;12.31;43.95;100470.28;4913943;29;20040;-90
2023/04/06 10:05:39;;;;;;;12.73;7.68;;;;;;;12.14;43.46;100470.38;4929739;29;20111;-87
2023/04/06 10:08:14;;;;;;;12.40;8.00;;;;;;;11.99;43.37;100466.75;4940827;28;20055;-89
2023/04/06 10:10:39;;;;;;;13.05;8.50;;;;;;;11.89;43.79;100447.25;4937449;28;20082;-89
2023/04/06 10:13:08;;;;;;;15.45;7.78;;;;;;;11.78;43.66;100461.91;4949908;28;20039;-88
2023/04/06 10:15:34;;;;;;;15.35;7.57;;;;;;;11.72;44.60;100465.28;4953336;28;20034;-88
2023/04/06 10:18:00;;;;;;;11.77;7.88;;;;;;;12.16;43.30;100456.72;4958568;28;20050;-87
2023/04/06 10:20:28;;;;;;;17.15;8.48;;;;;;;12.19;43.60;100478.75;4947425;28;20045;-88
2023/04/06 10:23:22;;;;;;;13.90;8.48;;;;;;;12.43;42.82;100472.41;4965218;28;20121;-85
2023/04/06 10:25:58;;;;;;;12.00;8.40;;;;;;;12.75;42.25;100466.97;4966624;28;20050;-87
2023/04/06 10:28:23;;;;;;;16.73;8.02;;;;;;;13.39;40.75;100445.03;4944460;28;20134;-87
2023/04/06 10:30:49;;;;;;;;;;;;;;;14.47;38.88;100466.00;4952721;28;20381;-88
2023/04/06 10:33:20;;;;;;;10.23;7.47;;;;;;;15.74;36.31;100454.41;4950809;28;19914;-87
2023/04/06 10:35:57;;;;;;;13.40;7.88;;;;;;;17.92;32.79;100448.69;4953805;28;20098;-88
2023/04/06 10:38:37;;;;;;;14.35;8.25;;;;;;;17.48;32.87;100442.88;4947257;28;20182;-88
2023/04/06 10:41:08;;;;;;;11.85;7.47;;;;;;;16.83;33.17;100445.44;4939214;28;20133;-89
2023/04/06 10:43:36;;;;;;;10.00;7.32;;;;;;;16.33;34.63;100452.16;4935260;28;20062;-88
2023/04/06 10:46:02;;;;;;;9.98;7.60;;;;;;;16.56;34.28;100446.41;4968320;28;20055;-88
2023/04/06 10:48:40;;;;;;;;;;;;;;;16.10;34.38;100447.91;4922167;28;20039;-86
2023/04/06 10:51:17;;;;;;;12.20;8.52;;;;;;;15.89;34.74;100453.44;4961408;28;19926;-84
2023/04/06 10:53:48;;;;;;;11.18;7.90;;;;;;;15.58;35.78;100443.84;4960624;28;20047;-85
2023/04/06 10:56:21;;;;;;;11.38;7.32;;;;;;;15.17;35.78;100422.94;4966683;28;20062;-86
2023/04/06 10:58:52;;;;;;;20.58;12.15;;;;;;;15.38;36.49;100430.16;4971454;28;20039;-85
2023/04/06 11:01:21;;;;;;;13.80;8.05;;;;;;;16.06;34.64;100437.66;4974910;28;20050;-87
2023/04/06 11:03:53;;;;;;;9.32;6.80;;;;;;;14.70;37.24;100433.41;4935062;28;20129;-85
2023/04/06 11:06:21;;;;;;;11.52;7.47;;;;;;;14.71;37.06;100435.06;4924565;29;20065;-88
2023/04/06 11:08:49;;;;;;;11.13;8.20;;;;;;;14.20;37.97;100431.56;4930582;29;20114;-87
2023/04/06 11:11:18;;;;;;;12.48;7.78;;;;;;;14.47;37.20;100448.91;4939615;28;20046;-87
2023/04/06 11:13:50;;;;;;;15.98;8.15;;;;;;;14.81;36.67;100440.13;4945796;28;20039;-87
2023/04/06 11:16:18;;;;;;;12.63;8.00;;;;;;;14.65;36.82;100413.34;4970892;28;20031;-88
2023/04/06 11:19:02;;;;;;;13.40;8.13;;;;;;;15.17;36.43;100429.22;4946931;28;20122;-86
2023/04/06 11:21:37;;;;;;;12.15;7.25;;;;;;;15.41;35.83;100438.75;4949488;28;20483;-87
2023/04/06 11:24:09;;;;;;;10.23;7.53;;;;;;;15.40;35.27;100439.81;4970021;28;20051;-88
2023/04/06 11:26:43;;;;;;;12.60;7.13;;;;;;;14.79;36.97;100436.78;4951642;28;20452;-87
2023/04/06 11:29:08;;;;;;;13.27;7.18;;;;;;;14.62;37.65;100435.38;4953415;28;20098;-87
2023/04/06 11:31:42;;;;;;;12.18;7.88;;;;;;;14.77;37.19;100442.41;4938532;28;20047;-89
2023/04/06 11:34:17;;;;;;;15.30;8.00;;;;;;;15.32;36.43;100437.22;4951411;28;20074;-89
2023/04/06 11:36:43;;;;;;;12.98;7.35;;;;;;;15.22;36.64;100431.34;4951412;28;20047;-86
2023/04/06 11:39:10;;;;;;;11.02;6.80;;;;;;;15.07;35.97;100412.44;4968737;28;20035;-89
2023/04/06 11:41:41;;;;;;;12.38;7.10;;;;;;;14.78;36.76;100419.72;4935263;28;20101;-86
2023/04/06 11:44:15;;;;;;;12.05;7.50;;;;;;;15.15;36.10;100414.19;4941271;28;20039;-88
2023/04/06 11:46:50;;;;;;;10.90;6.97;;;;;;;14.35;37.44;100397.19;4967607;28;20042;-88
2023/04/06 11:49:17;;;;;;;14.63;6.73;;;;;;;15.05;36.76;100419.09;4954786;28;20519;-89
2023/04/06 11:51:49;;;;;;;11.75;7.00;;;;;;;14.76;36.96;100421.78;4940250;28;20282;-87
2023/04/06 11:54:16;;;;;;;10.15;6.80;;;;;;;14.77;37.26;100417.19;4940535;28;20043;-86
2023/04/06 11:56:45;;;;;;;9.73;6.75;;;;;;;14.96;36.48;100416.56;4942591;28;20034;-88
2023/04/06 11:59:11;;;;;;;12.23;7.22;;;;;;;14.91;36.31;100397.34;4957239;28;20093;-88
2023/04/06 12:01:46;;;;;;;10.63;6.35;;;;;;;15.14;36.33;100401.69;4927234;29;20051;-88
2023/04/06 12:04:11;;;;;;;12.30;6.70;;;;;;;15.53;35.45;100395.69;4970111;28;20189;-87
2023/04/06 12:06:37;;;;;;;;;;;;;;;15.79;34.94;100400.44;4967482;28;20106;-89
2023/04/06 12:09:06;;;;;;;;;;;;;;;15.50;35.39;100412.34;4930446;28;19922;-87
2023/04/06 12:11:32;;;;;;;9.27;6.88;;;;;;;15.07;35.91;100403.50;4947379;28;19936;-88